createdAt,value
2023-03-21T00:03:06.645Z,15.5
2023-03-21T00:07:02.921Z,15.5
2023-03-21T00:11:22.448Z,15.437
2023-03-21T00:15:04.719Z,15.437
2023-03-21T00:19:20.952Z,15.437
2023-03-21T00:23:52.838Z,15.437
2023-03-21T00:28:33.993Z,15.437
2023-03-21T00:32:14.452Z,15.437
2023-03-21T00:38:33.392Z,15.437
2023-03-21T00:43:06.888Z,15.437
2023-03-21T00:47:07.892Z,15.437
2023-03-21T00:50:49.591Z,15.437
2023-03-21T00:55:00.686Z,15.437
2023-03-21T00:58:50.793Z,15.437
2023-03-21T01:03:24.465Z,15.437
2023-03-21T01:07:06.518Z,15.437
2023-03-21T01:11:23.164Z,15.437
2023-03-21T01:15:18.174Z,15.437
2023-03-21T01:18:59.308Z,15.437
2023-03-21T01:22:54.576Z,15.437
2023-03-21T01:27:07.819Z,15.375
2023-03-21T01:31:08.805Z,15.375
2023-03-21T01:34:49.821Z,15.375
2023-03-21T01:39:06.184Z,15.437
2023-03-21T01:43:15.103Z,15.437
2023-03-21T01:47:30.843Z,15.5
2023-03-21T01:51:11.587Z,15.562
2023-03-21T01:55:20.052Z,15.687
2023-03-21T01:59:30.120Z,15.687
2023-03-21T02:03:15.167Z,15.75
2023-03-21T02:07:11.916Z,15.75
2023-03-21T02:11:05.982Z,15.75
2023-03-21T02:15:07.165Z,15.75
2023-03-21T02:18:47.870Z,15.75
2023-03-21T02:22:42.360Z,15.75
2023-03-21T02:27:04.738Z,15.75
2023-03-21T02:31:17.993Z,15.75
2023-03-21T02:35:27.090Z,15.75
2023-03-21T02:39:41.242Z,15.75
2023-03-21T02:43:55.926Z,15.75
2023-03-21T02:47:50.231Z,15.75
2023-03-21T02:51:45.405Z,15.75
2023-03-21T02:56:22.817Z,15.75
2023-03-21T03:03:34.380Z,15.75
2023-03-21T03:07:15.759Z,15.75
2023-03-21T03:11:28.122Z,15.75
2023-03-21T03:15:45.616Z,15.75
2023-03-21T03:19:26.274Z,15.75
2023-03-21T03:23:21.414Z,15.75
2023-03-21T03:27:29.237Z,15.75
2023-03-21T03:31:47.294Z,15.75
2023-03-21T03:35:28.138Z,15.75
2023-03-21T03:39:22.172Z,15.75
2023-03-21T03:43:50.970Z,15.75
2023-03-21T03:47:50.827Z,15.75
2023-03-21T03:51:36.741Z,15.75
2023-03-21T03:55:45.058Z,15.687
2023-03-21T03:59:34.576Z,15.687
2023-03-21T04:03:08.323Z,15.687
2023-03-21T04:07:05.313Z,15.687
2023-03-21T04:11:18.614Z,15.687
2023-03-21T04:15:15.685Z,15.687
2023-03-21T04:18:56.772Z,15.687
2023-03-21T04:23:09.907Z,15.687
2023-03-21T04:27:20.483Z,15.687
2023-03-21T04:31:08.719Z,15.625
2023-03-21T04:35:01.851Z,15.625
2023-03-21T04:38:43.043Z,15.562
2023-03-21T04:42:24.086Z,15.562
2023-03-21T04:46:04.886Z,15.562
2023-03-21T04:49:46.696Z,15.562
2023-03-21T04:53:27.727Z,15.5
2023-03-21T04:57:08.520Z,15.5
2023-03-21T05:03:06.568Z,15.5
2023-03-21T05:08:35.955Z,15.437
2023-03-21T05:12:16.949Z,15.437
2023-03-21T05:15:58.312Z,15.437
2023-03-21T05:19:40.054Z,15.437
2023-03-21T05:23:21.178Z,15.437
2023-03-21T05:27:02.426Z,15.437
2023-03-21T05:30:43.302Z,15.375
2023-03-21T05:34:24.396Z,15.375
2023-03-21T05:38:06.214Z,15.375
2023-03-21T05:41:47.223Z,15.375
2023-03-21T05:45:27.853Z,15.375
2023-03-21T05:49:09.600Z,15.375
2023-03-21T05:52:50.682Z,15.375
2023-03-21T05:56:31.481Z,15.375
2023-03-21T06:03:08.835Z,15.375
2023-03-21T06:06:50.618Z,15.312
2023-03-21T06:10:31.957Z,15.312
2023-03-21T06:14:12.674Z,15.312
2023-03-21T06:17:53.650Z,15.312
2023-03-21T06:21:34.582Z,15.312
2023-03-21T06:25:15.393Z,15.312
2023-03-21T06:28:55.986Z,15.312
2023-03-21T06:32:37.212Z,15.312
2023-03-21T06:36:20.850Z,15.312
2023-03-21T06:40:01.814Z,15.312
2023-03-21T06:43:42.362Z,15.312
2023-03-21T06:47:24.329Z,15.312
2023-03-21T06:51:05.351Z,15.312
2023-03-21T06:54:46.364Z,15.312
2023-03-21T06:58:27.649Z,15.312
2023-03-21T07:03:11.702Z,15.312
2023-03-21T07:06:52.330Z,15.312
2023-03-21T07:10:33.123Z,15.312
2023-03-21T07:14:14.874Z,15.312
2023-03-21T07:17:55.620Z,15.312
2023-03-21T07:21:36.732Z,15.312
2023-03-21T07:25:31.767Z,15.312
2023-03-21T07:29:15.741Z,15.312
2023-03-21T07:32:56.847Z,15.312
2023-03-21T07:36:37.594Z,15.312
2023-03-21T07:40:21.329Z,15.312
2023-03-21T07:47:48.815Z,15.312
2023-03-21T07:51:29.595Z,15.312
2023-03-21T07:55:10.332Z,15.312
2023-03-21T07:58:54.031Z,15.312
2023-03-21T08:03:07.631Z,15.375
2023-03-21T08:06:48.420Z,15.375
2023-03-21T08:10:28.909Z,15.375
2023-03-21T08:14:09.509Z,15.375
2023-03-21T08:17:50.741Z,15.375
2023-03-21T08:21:31.789Z,15.375
2023-03-21T08:25:11.976Z,15.375
2023-03-21T08:28:52.714Z,15.312
2023-03-21T08:32:33.836Z,15.312
2023-03-21T08:36:19.216Z,15.312
2023-03-21T08:40:00.480Z,15.312
2023-03-21T08:43:46.616Z,15.312
2023-03-21T08:47:27.939Z,15.312
2023-03-21T08:51:09.318Z,15.312
2023-03-21T08:54:50.339Z,15.312
2023-03-21T08:58:30.791Z,15.375
2023-03-21T09:03:06.577Z,15.375
2023-03-21T09:06:47.838Z,15.375
2023-03-21T09:10:56.557Z,15.437
2023-03-21T09:14:37.106Z,15.437
2023-03-21T09:18:18.721Z,15.437
2023-03-21T09:21:59.320Z,15.437
2023-03-21T09:25:40.622Z,15.437
2023-03-21T09:29:22.258Z,15.437
2023-03-21T09:33:04.907Z,15.5
2023-03-21T09:36:45.774Z,15.437
2023-03-21T09:40:26.952Z,15.5
2023-03-21T09:44:07.877Z,15.5
2023-03-21T09:47:49.340Z,15.5
2023-03-21T09:52:01.082Z,15.562
2023-03-21T09:55:43.566Z,15.562
2023-03-21T09:59:24.468Z,15.562
2023-03-21T10:03:07.419Z,15.562
2023-03-21T10:06:48.362Z,15.562
2023-03-21T10:10:32.074Z,15.562
2023-03-21T10:14:13.542Z,15.562
2023-03-21T10:17:55.378Z,15.562
2023-03-21T10:22:01.743Z,15.562
2023-03-21T10:25:43.499Z,15.562
2023-03-21T10:29:41.625Z,15.562
2023-03-21T10:33:26.135Z,15.562
2023-03-21T10:37:07.933Z,15.562
2023-03-21T10:40:48.556Z,15.562
2023-03-21T10:44:29.024Z,15.562
2023-03-21T10:48:14.915Z,15.625
2023-03-21T10:52:03.507Z,15.625
2023-03-21T10:55:44.259Z,15.625
2023-03-21T10:59:25.048Z,15.687
2023-03-21T11:03:08.030Z,15.687
2023-03-21T11:06:50.284Z,15.687
2023-03-21T11:10:37.691Z,15.687
2023-03-21T11:14:18.060Z,15.687
2023-03-21T11:17:59.029Z,15.687
2023-03-21T11:21:39.533Z,15.75
2023-03-21T11:25:21.196Z,15.75
2023-03-21T11:29:02.272Z,15.812
2023-03-21T11:32:43.452Z,15.812
2023-03-21T11:36:25.478Z,15.875
2023-03-21T11:40:06.441Z,15.875
2023-03-21T11:43:47.722Z,15.937
2023-03-21T11:47:31.851Z,16.0
2023-03-21T11:51:18.991Z,16.0
2023-03-21T11:54:59.726Z,15.937
2023-03-21T11:58:52.679Z,15.937
2023-03-21T12:03:07.161Z,15.875
2023-03-21T12:06:49.732Z,15.812
2023-03-21T12:10:30.578Z,15.812
2023-03-21T12:14:25.536Z,15.812
2023-03-21T12:18:07.498Z,15.875
2023-03-21T12:21:48.436Z,15.875
2023-03-21T12:25:30.437Z,15.937
2023-03-21T12:29:21.996Z,15.937
2023-03-21T12:33:07.409Z,15.937
2023-03-21T12:36:48.676Z,15.937
2023-03-21T12:40:31.689Z,15.937
2023-03-21T12:44:15.749Z,15.937
2023-03-21T12:48:21.002Z,15.875
2023-03-21T12:52:02.237Z,15.875
2023-03-21T12:55:42.791Z,15.812
2023-03-21T12:59:38.366Z,15.812
2023-03-21T13:03:08.498Z,15.812
2023-03-21T13:07:00.156Z,15.812
2023-03-21T13:10:46.941Z,15.812
2023-03-21T13:14:30.027Z,15.875
2023-03-21T13:18:19.533Z,15.875
2023-03-21T13:22:00.770Z,15.875
2023-03-21T13:25:43.451Z,15.937
2023-03-21T13:29:26.801Z,15.937
2023-03-21T13:33:27.602Z,15.937
2023-03-21T13:37:08.985Z,15.937
2023-03-21T13:40:51.357Z,15.937
2023-03-21T13:44:35.437Z,15.937
2023-03-21T13:48:37.643Z,15.937
2023-03-21T13:52:35.762Z,15.937
2023-03-21T13:56:16.933Z,15.937
2023-03-21T13:59:57.798Z,16.0
2023-03-21T14:03:09.007Z,16.0
2023-03-21T14:07:04.187Z,16.062
2023-03-21T14:11:15.436Z,16.125
2023-03-21T14:15:31.059Z,16.187
2023-03-21T14:19:44.554Z,16.25
2023-03-21T14:23:28.527Z,16.25
2023-03-21T14:27:22.732Z,16.25
2023-03-21T14:31:19.100Z,16.187
2023-03-21T14:35:01.227Z,16.25
2023-03-21T14:38:50.421Z,16.25
2023-03-21T14:42:32.658Z,16.25
2023-03-21T14:46:31.558Z,16.312
2023-03-21T14:50:12.693Z,16.312
2023-03-21T14:53:53.464Z,16.25
2023-03-21T14:57:34.457Z,16.25
2023-03-21T15:03:07.981Z,16.25
2023-03-21T15:06:50.571Z,16.187
2023-03-21T15:10:34.951Z,16.25
2023-03-21T15:14:16.537Z,16.312
2023-03-21T15:18:00.314Z,16.375
2023-03-21T15:21:41.376Z,16.375
2023-03-21T15:25:22.365Z,16.312
2023-03-21T15:29:03.225Z,16.25
2023-03-21T15:32:45.631Z,16.187
2023-03-21T15:36:28.779Z,16.187
2023-03-21T15:40:09.672Z,16.125
2023-03-21T15:43:50.532Z,16.062
2023-03-21T15:47:32.503Z,16.062
2023-03-21T15:51:13.472Z,16.0
2023-03-21T15:54:56.931Z,16.0
2023-03-21T15:58:37.931Z,15.937
2023-03-21T16:03:08.512Z,16.0
2023-03-21T16:06:50.490Z,16.0
2023-03-21T16:10:30.919Z,15.937
2023-03-21T16:14:12.207Z,15.937
2023-03-21T16:17:53.904Z,15.937
2023-03-21T16:21:34.350Z,15.937
2023-03-21T16:25:14.688Z,15.875
2023-03-21T16:28:54.917Z,15.875
2023-03-21T16:32:38.271Z,15.875
2023-03-21T16:36:19.617Z,15.875
2023-03-21T16:40:00.373Z,15.875
2023-03-21T16:43:41.314Z,15.875
2023-03-21T16:47:23.250Z,15.875
2023-03-21T16:51:04.916Z,15.812
2023-03-21T16:54:45.505Z,15.812
2023-03-21T16:58:28.605Z,15.812
2023-03-21T17:03:06.959Z,15.812
2023-03-21T17:08:35.869Z,15.75
2023-03-21T17:12:17.049Z,15.75
2023-03-21T17:15:57.916Z,15.75
2023-03-21T17:19:39.395Z,15.75
2023-03-21T17:23:21.189Z,15.75
2023-03-21T17:27:01.673Z,15.687
2023-03-21T17:30:43.140Z,15.687
2023-03-21T17:34:25.287Z,15.687
2023-03-21T17:38:06.419Z,15.687
2023-03-21T17:41:47.039Z,15.687
2023-03-21T17:45:27.372Z,15.687
2023-03-21T17:49:08.563Z,15.687
2023-03-21T17:52:51.110Z,15.687
2023-03-21T17:56:31.998Z,15.687
2023-03-21T18:03:06.795Z,15.687
2023-03-21T18:06:49.511Z,15.625
2023-03-21T18:11:08.582Z,15.625
2023-03-21T18:15:17.094Z,15.625
2023-03-21T18:19:00.938Z,15.625
2023-03-21T18:22:59.281Z,15.625
2023-03-21T18:26:41.156Z,15.625
2023-03-21T18:32:57.310Z,15.625
2023-03-21T18:36:51.536Z,15.625
2023-03-21T18:40:34.490Z,15.625
2023-03-21T18:45:55.291Z,15.625
2023-03-21T18:50:47.206Z,15.562
2023-03-21T18:54:27.823Z,15.562
2023-03-21T18:59:27.873Z,15.562
2023-03-21T19:03:42.797Z,15.562
2023-03-21T19:08:03.701Z,15.562
2023-03-21T19:12:09.209Z,15.562
2023-03-21T19:15:50.492Z,15.5
2023-03-21T19:21:40.031Z,15.5
2023-03-21T19:26:15.080Z,15.5
2023-03-21T19:30:10.914Z,15.5
2023-03-21T19:33:54.983Z,15.5
2023-03-21T19:38:01.706Z,15.5
2023-03-21T19:41:42.682Z,15.5
2023-03-21T19:46:21.957Z,15.5
2023-03-21T19:51:59.006Z,15.5
2023-03-21T19:55:39.351Z,15.5
2023-03-21T19:59:32.027Z,15.5
2023-03-21T20:03:25.674Z,15.5
2023-03-21T20:07:06.445Z,15.5
2023-03-21T20:11:43.270Z,15.5
2023-03-21T20:15:54.781Z,15.5
2023-03-21T20:19:44.439Z,15.437
2023-03-21T20:24:39.648Z,15.437
2023-03-21T20:29:09.144Z,15.437
2023-03-21T20:33:45.479Z,15.437
2023-03-21T20:38:47.694Z,15.437
2023-03-21T20:42:32.733Z,15.437
2023-03-21T20:47:42.553Z,15.437
2023-03-21T20:53:25.379Z,15.437
2023-03-21T20:57:06.175Z,15.437
2023-03-21T21:03:08.337Z,15.437
2023-03-21T21:07:21.532Z,15.437
2023-03-21T21:12:28.379Z,15.437
2023-03-21T21:16:09.494Z,15.375
2023-03-21T21:20:49.813Z,15.375
2023-03-21T21:24:46.741Z,15.375
2023-03-21T21:28:27.022Z,15.375
2023-03-21T21:32:08.386Z,15.375
2023-03-21T21:35:49.667Z,15.375
2023-03-21T21:39:30.492Z,15.375
2023-03-21T21:43:11.428Z,15.375
2023-03-21T21:46:52.309Z,15.375
2023-03-21T21:50:33.522Z,15.375
2023-03-21T21:54:14.536Z,15.375
2023-03-21T21:57:55.546Z,15.375
2023-03-21T22:03:08.206Z,15.375
2023-03-21T22:06:48.871Z,15.375
2023-03-21T22:10:29.946Z,15.375
2023-03-21T22:14:11.011Z,15.375
2023-03-21T22:17:51.739Z,15.375
2023-03-21T22:21:50.783Z,15.375
2023-03-21T22:25:31.505Z,15.312
2023-03-21T22:29:15.260Z,15.312
2023-03-21T22:33:08.486Z,15.312
2023-03-21T22:36:49.569Z,15.312
2023-03-21T22:40:30.423Z,15.312
2023-03-21T22:44:12.073Z,15.312
2023-03-21T22:47:53.191Z,15.312
2023-03-21T22:51:33.598Z,15.312
2023-03-21T22:55:13.982Z,15.312
2023-03-21T22:58:54.818Z,15.312
2023-03-21T23:03:08.254Z,15.312
2023-03-21T23:06:49.536Z,15.25
2023-03-21T23:10:30.202Z,15.25
2023-03-21T23:14:27.693Z,15.25
2023-03-21T23:18:08.836Z,15.25
2023-03-21T23:21:49.621Z,15.25
2023-03-21T23:25:29.851Z,15.25
2023-03-21T23:29:11.779Z,15.25
2023-03-21T23:32:53.130Z,15.25
2023-03-21T23:36:33.838Z,15.25
2023-03-21T23:40:14.068Z,15.25
2023-03-21T23:43:54.430Z,15.25
2023-03-21T23:47:35.358Z,15.25
2023-03-21T23:51:16.885Z,15.25
2023-03-21T23:54:57.875Z,15.25
2023-03-21T23:58:38.095Z,15.25
